Skip Navigation LinksHome page > Weather > Current weather Skip Navigation Links

Current Weather

Honolulu Intl, Honolulu

For information only: do not use for flight planning or navigation.
Latest weather
Observation time Saturday, October 25, 2014 5:53 AM HST
Local time Saturday, October 25, 2014 6:43 AM HST
Flight conditions Visual Meteorological Conditions
Winds
Wind speed calm
Visibility 10 mi.
Sky condition
Ceiling unlimited
Cloud layer few clouds 2,500 ft.
Temperature 74°F
Dewpoint 70°F
Altimeter 30.00 in.Hg
Derived measurements
Relative humidity 87%
Density altitude 1226 ft.
Sea-level pressure 29.99 in.Hg
Remarks
Automated weather observing station with precipitation discriminator.
METAR PHNL 251553Z 00000KT 10SM FEW025 23/21 A3000 RMK AO2 SLP157 T02330211

Settings

Location code

InnerDrive.Weather 4.0.5399.0 Release CLR 4.0.30319.34014
Copyright ©2014 Inner Drive Technology. All rights reserved. Portions Copyright ©1986-2014 David Braverman.

Find weather

Site navigation


Skip Navigation Links

Place info

Page info

PayPal - The safer, easier way to pay online!

Return home.

Copyright ©2014 Inner Drive Technology. Purveyors of fine, hand-crafted computer software. Page printed 2014-10-25T16:43:39 UTC.